createdAt,value
2019-01-24T00:01:43.832Z,35.43
2019-01-24T00:06:56.546Z,36.27
2019-01-24T00:12:09.243Z,35.63
2019-01-24T00:17:37.084Z,35.13
2019-01-24T00:22:44.513Z,34.23
2019-01-24T00:28:00.503Z,36.63
2019-01-24T00:33:10.888Z,34.43
2019-01-24T00:38:23.658Z,36.55
2019-01-24T00:43:33.676Z,37.33
2019-01-24T00:48:40.530Z,35.90
2019-01-24T00:53:51.337Z,37.23
2019-01-24T00:59:00.346Z,37.13
2019-01-24T01:04:11.129Z,35.33
2019-01-24T01:09:20.288Z,33.65
2019-01-24T01:14:31.916Z,35.57
2019-01-24T01:19:42.736Z,35.70
2019-01-24T01:25:02.310Z,35.23
2019-01-24T01:30:17.739Z,34.53
2019-01-24T01:35:43.818Z,32.43
2019-01-24T01:40:56.426Z,34.00
2019-01-24T01:46:08.038Z,34.00
2019-01-24T01:51:16.169Z,34.20
2019-01-24T01:56:28.873Z,33.20
2019-01-24T02:01:38.774Z,35.17
2019-01-24T02:06:50.517Z,33.77
2019-01-24T02:12:06.001Z,35.37
2019-01-24T02:17:16.464Z,37.43
2019-01-24T02:22:26.361Z,34.23
2019-01-24T02:27:42.124Z,36.20
2019-01-24T02:32:50.599Z,36.90
2019-01-24T02:37:59.500Z,38.87
2019-01-24T02:43:12.215Z,38.63
2019-01-24T02:48:22.237Z,40.38
2019-01-24T02:53:32.197Z,38.80
2019-01-24T02:58:41.406Z,38.77
2019-01-24T03:03:52.231Z,37.30
2019-01-24T03:09:00.905Z,36.63
2019-01-24T03:14:10.549Z,39.00
2019-01-24T03:19:24.142Z,38.50
2019-01-24T03:24:34.215Z,36.57
2019-01-24T03:29:46.131Z,38.30
2019-01-24T03:35:04.309Z,35.70
2019-01-24T03:40:10.241Z,39.10
2019-01-24T03:45:24.210Z,36.73
2019-01-24T03:50:34.157Z,41.17
2019-01-24T03:55:47.821Z,36.50
2019-01-24T04:00:58.650Z,38.90
2019-01-24T04:06:06.275Z,37.87
2019-01-24T04:11:15.487Z,36.63
2019-01-24T04:16:24.888Z,37.50
2019-01-24T04:21:36.626Z,36.03
2019-01-24T04:26:49.285Z,34.13
2019-01-24T04:32:02.155Z,34.50
2019-01-24T04:37:14.762Z,37.93
2019-01-24T04:42:24.709Z,36.20
2019-01-24T04:47:34.316Z,32.30
2019-01-24T04:52:43.232Z,34.47
2019-01-24T04:57:54.979Z,36.60
2019-01-24T05:03:08.716Z,38.47
2019-01-24T05:08:21.574Z,37.40
2019-01-24T05:13:28.461Z,35.73
2019-01-24T05:18:41.394Z,36.33
2019-01-24T05:23:55.619Z,36.07
2019-01-24T05:29:26.727Z,36.63
2019-01-24T05:34:37.525Z,39.20
2019-01-24T05:40:52.161Z,37.57
2019-01-24T05:46:05.836Z,38.50
2019-01-24T05:51:15.947Z,40.33
2019-01-24T05:56:29.415Z,40.92
2019-01-24T06:01:40.304Z,41.27
2019-01-24T06:06:49.375Z,41.60
2019-01-24T06:12:01.938Z,38.47
2019-01-24T06:17:12.845Z,41.40
2019-01-24T06:22:43.751Z,35.10
2019-01-24T06:27:51.220Z,37.23
2019-01-24T06:33:04.876Z,37.50
2019-01-24T06:38:20.439Z,34.53
2019-01-24T06:43:29.767Z,33.93
2019-01-24T06:48:44.419Z,35.23
2019-01-24T06:53:53.084Z,36.87
2019-01-24T06:59:01.272Z,37.10
2019-01-24T07:04:13.084Z,36.23
2019-01-24T07:09:25.937Z,37.43
2019-01-24T07:14:38.571Z,36.67
2019-01-24T07:19:51.241Z,36.77
2019-01-24T07:25:02.124Z,38.23
2019-01-24T07:30:16.933Z,39.73
2019-01-24T07:35:29.649Z,36.00
2019-01-24T07:40:38.695Z,37.60
2019-01-24T07:45:48.366Z,36.13
2019-01-24T07:50:57.744Z,36.03
2019-01-24T07:56:14.122Z,36.77
2019-01-24T08:01:23.210Z,37.05
2019-01-24T08:06:36.839Z,34.50
2019-01-24T08:11:48.551Z,37.67
2019-01-24T08:17:00.352Z,35.33
2019-01-24T08:22:11.276Z,34.65
2019-01-24T08:27:18.747Z,38.92
2019-01-24T08:32:30.053Z,38.23
2019-01-24T08:37:44.309Z,41.40
2019-01-24T08:42:57.828Z,37.17
2019-01-24T08:48:07.781Z,41.33
2019-01-24T08:53:15.768Z,38.47
2019-01-24T08:58:28.588Z,39.48
2019-01-24T09:03:40.164Z,41.33
2019-01-24T09:08:53.094Z,37.80
2019-01-24T09:14:07.445Z,41.90
2019-01-24T09:19:22.796Z,39.00
2019-01-24T09:24:31.883Z,36.67
2019-01-24T09:29:42.628Z,40.73
2019-01-24T09:34:56.335Z,39.93
2019-01-24T09:40:04.445Z,39.07
2019-01-24T09:45:18.463Z,38.03
2019-01-24T09:50:30.381Z,39.40
2019-01-24T09:55:43.086Z,36.43
2019-01-24T10:00:53.868Z,39.17
2019-01-24T10:06:01.553Z,37.37
2019-01-24T10:11:11.892Z,36.07
2019-01-24T10:16:20.852Z,37.45
2019-01-24T10:21:29.476Z,37.63
2019-01-24T10:26:44.976Z,37.00
2019-01-24T10:31:56.804Z,37.20
2019-01-24T10:37:05.828Z,36.07
2019-01-24T10:42:16.744Z,36.03
2019-01-24T10:47:30.023Z,36.53
2019-01-24T10:52:58.040Z,37.63
2019-01-24T10:58:09.191Z,40.37
2019-01-24T11:03:20.624Z,36.53
2019-01-24T11:08:30.513Z,37.50
2019-01-24T11:13:40.475Z,38.63
2019-01-24T11:18:55.207Z,34.63
2019-01-24T11:24:09.561Z,36.20
2019-01-24T11:29:21.361Z,38.80
2019-01-24T11:34:29.553Z,36.00
2019-01-24T11:39:42.107Z,37.70
2019-01-24T11:44:52.092Z,35.30
2019-01-24T11:50:03.847Z,34.63
2019-01-24T11:55:16.751Z,36.53
2019-01-24T12:00:30.638Z,38.53
2019-01-24T12:05:39.063Z,36.87
2019-01-24T12:10:53.033Z,39.27
2019-01-24T12:16:03.213Z,37.38
2019-01-24T12:21:13.058Z,37.20
2019-01-24T12:26:23.441Z,36.40
2019-01-24T12:31:33.475Z,36.87
2019-01-24T12:36:44.936Z,38.67
2019-01-24T12:41:58.417Z,36.43
2019-01-24T12:47:09.694Z,37.13
2019-01-24T12:52:18.728Z,37.40
2019-01-24T12:57:26.092Z,37.13
2019-01-24T13:02:38.693Z,38.07
2019-01-24T13:07:51.076Z,39.00
2019-01-24T13:12:59.205Z,37.93
2019-01-24T13:18:10.348Z,35.50
2019-01-24T13:23:20.650Z,34.60
2019-01-24T13:28:33.351Z,36.93
2019-01-24T13:33:42.307Z,36.27
2019-01-24T13:38:56.933Z,39.70
2019-01-24T13:44:07.272Z,35.40
2019-01-24T13:49:15.691Z,37.23
2019-01-24T13:54:26.501Z,35.33
2019-01-24T13:59:34.553Z,36.50
2019-01-24T14:04:47.984Z,37.43
2019-01-24T14:10:03.991Z,38.67
2019-01-24T14:15:14.283Z,38.50
2019-01-24T14:20:26.407Z,38.00
2019-01-24T14:25:36.571Z,37.13
2019-01-24T14:30:46.415Z,36.43
2019-01-24T14:35:57.989Z,37.30
2019-01-24T14:41:05.415Z,37.20
2019-01-24T14:46:18.312Z,38.55
2019-01-24T14:51:26.602Z,38.77
2019-01-24T14:56:37.478Z,37.70
2019-01-24T15:01:50.102Z,36.90
2019-01-24T15:06:58.432Z,34.90
2019-01-24T15:12:11.973Z,34.57
2019-01-24T15:17:23.944Z,34.80
2019-01-24T15:22:36.718Z,35.97
2019-01-24T15:27:49.306Z,38.20
2019-01-24T15:33:05.072Z,37.57
2019-01-24T15:38:15.052Z,38.73
2019-01-24T15:43:27.956Z,36.00
2019-01-24T15:48:42.758Z,35.43
2019-01-24T15:53:52.199Z,35.37
2019-01-24T15:59:07.952Z,36.43
2019-01-24T16:04:19.844Z,34.48
2019-01-24T16:09:29.930Z,36.33
2019-01-24T16:14:39.612Z,36.47
2019-01-24T16:19:48.134Z,38.07
2019-01-24T16:25:07.370Z,37.17
2019-01-24T16:30:29.674Z,36.87
2019-01-24T16:35:45.130Z,37.47
2019-01-24T16:40:59.600Z,36.30
2019-01-24T16:46:10.461Z,37.70
2019-01-24T16:51:21.753Z,38.48
2019-01-24T16:56:31.858Z,37.67
2019-01-24T17:01:39.258Z,35.97
2019-01-24T17:06:54.605Z,37.80
2019-01-24T17:12:06.478Z,35.97
2019-01-24T17:17:16.278Z,38.03
2019-01-24T17:22:25.536Z,38.60
2019-01-24T17:27:34.667Z,40.13
2019-01-24T17:32:49.746Z,38.87
2019-01-24T17:37:57.675Z,39.63
2019-01-24T17:43:04.590Z,38.50
2019-01-24T17:48:14.637Z,39.37
2019-01-24T17:53:27.225Z,40.70
2019-01-24T17:58:36.890Z,40.53
2019-01-24T18:03:49.142Z,41.30
2019-01-24T18:09:02.724Z,45.45
2019-01-24T18:14:25.736Z,43.87
2019-01-24T18:19:40.819Z,46.97
2019-01-24T18:24:48.898Z,42.30
2019-01-24T18:29:55.372Z,44.77
2019-01-24T18:35:02.855Z,40.70
2019-01-24T18:40:17.165Z,45.10
2019-01-24T18:45:36.230Z,44.93
2019-01-24T18:50:49.672Z,43.57
2019-01-24T18:56:06.857Z,45.50
2019-01-24T19:01:22.280Z,46.67
2019-01-24T19:06:28.700Z,43.83
2019-01-24T19:11:40.514Z,46.53
2019-01-24T19:16:52.277Z,46.87
2019-01-24T19:22:12.518Z,45.97
2019-01-24T19:27:25.843Z,45.48
2019-01-24T19:32:41.238Z,42.83
2019-01-24T19:37:51.420Z,44.23
2019-01-24T19:43:02.413Z,44.93
2019-01-24T19:48:10.892Z,44.20
2019-01-24T19:53:21.028Z,45.78
2019-01-24T19:58:30.892Z,44.95
2019-01-24T20:03:45.228Z,46.70
2019-01-24T20:09:01.041Z,47.50
2019-01-24T20:14:12.078Z,41.23
2019-01-24T20:19:21.115Z,42.13
2019-01-24T20:24:29.269Z,42.87
2019-01-24T20:29:43.849Z,41.97
2019-01-24T20:34:53.982Z,47.93
2019-01-24T20:40:08.308Z,43.17
2019-01-24T20:45:17.545Z,41.95
2019-01-24T20:50:28.723Z,45.80
2019-01-24T20:55:40.176Z,41.97
2019-01-24T21:00:50.270Z,45.00
2019-01-24T21:06:02.290Z,41.63
2019-01-24T21:11:13.296Z,46.70
2019-01-24T21:16:28.244Z,46.65
2019-01-24T21:21:44.381Z,46.87
2019-01-24T21:26:57.296Z,46.63
2019-01-24T21:32:07.847Z,45.00
2019-01-24T21:37:16.254Z,48.33
2019-01-24T21:42:30.189Z,46.28
2019-01-24T21:47:37.133Z,48.10
2019-01-24T21:52:46.310Z,49.03
2019-01-24T21:57:58.289Z,46.00
2019-01-24T22:03:07.586Z,45.80
2019-01-24T22:08:17.688Z,49.40
2019-01-24T22:13:28.528Z,49.98
2019-01-24T22:18:42.911Z,43.27
2019-01-24T22:23:51.394Z,47.87
2019-01-24T22:28:59.960Z,51.47
2019-01-24T22:34:12.770Z,52.65
2019-01-24T22:39:23.634Z,50.53
2019-01-24T22:44:32.842Z,49.23
2019-01-24T22:49:49.274Z,52.77
2019-01-24T22:54:58.641Z,52.00
2019-01-24T23:00:12.528Z,51.73
2019-01-24T23:05:25.584Z,49.03
2019-01-24T23:10:34.697Z,50.47
2019-01-24T23:15:50.223Z,49.70
2019-01-24T23:21:03.596Z,54.87
2019-01-24T23:26:11.876Z,53.73
2019-01-24T23:31:20.016Z,54.50
2019-01-24T23:36:30.902Z,53.23
2019-01-24T23:41:43.259Z,55.63
2019-01-24T23:46:54.322Z,46.97
2019-01-24T23:52:04.406Z,50.90
2019-01-24T23:57:31.596Z,51.67
